Chandler, TX

4:15 AM CDT on August 23, 2014 (GMT -0500)
Hardee Drive Area | Change Station
CLOSE
Current Station
Personal Weather Station
Location: Chandler, TX
Elevation: 410 ft
Nearby Weather Stations

Elev 410 ft 32.31 °N, 95.48 °W | Updated 0 second ago

Clear
Clear
76.7 °F
Feels Like 78 °F
N
0.0
Wind Variable Wind from SE
Gusts 0.0 mph

Today
High -- | Low -- °F
--% Chance of Precip.
Yesterday
High -- | Low -- °F
Precip. -- in
6:51 AM 7:57 PM
Waning Crescent, 4% visible
Pressure 29.97 in
Visibility 10.0 miles
Clouds Clear
Heat Index 78 °F
Dew Point 73 °F
Humidity 88%
Rainfall 0.00 in
Snow Depth Not available.
UV 0 out of 12
Pollen 8.50 out of 12
Air Quality Not available.
Flu Activity Not available.
METAR KTYR 230753Z AUTO 19008KT 10SM CLR 26/22 A3000 RMK AO2 SLP148 T02610222

More Conditions Fewer Conditions

Pressure 29.97 in
Visibility 10.0 miles
Clouds Clear
Heat Index 78 °F
Dew Point 73 °F
Humidity 88%
Rainfall 0.00 in
Snow Depth Not available.
UV 0 out of 12
Pollen 8.50 out of 12
Air Quality Not available.
Flu Activity Not available.
METAR KTYR 230753Z AUTO 19008KT 10SM CLR 26/22 A3000 RMK AO2 SLP148 T02610222

More Conditions Fewer Conditions

10-Day Weather Forecast

Almanac

Astronomy

Aug. 23, 2014 Rise Set
Actual Time 6:51 AM CDT 7:57 PM CDT
Civil Twilight 6:26 AM CDT 8:22 PM CDT
Nautical Twilight 5:56 AM CDT 8:52 PM CDT
Astronomical Twilight 5:24 AM CDT 9:23 PM CDT
Moon 5:10 AM CDT 6:41 PM CDT
Length of Visible Light 13h 56m
Length of Day
13h 05m
Tomorrow will be 1m 49s shorter.
Waning Crescent, 4% of the Moon is Illuminated
Today
Waning Crescent
Aug 25
New
Sep 2
First Quarter
Sep 8
Full
Sep 15
Last Quarter

Today's Extremes

State Highs State Lows

Community

WunderPhotos

Upload Photos

1,746,396 photos uploaded!

WunderBlogs® & News

By Dr. Jeff Masters
Director of Meteorology, Weather Underground
By Kari Strenfel
Meteorologist, Weather Underground
By Christopher C. Burt
Weather Historian, Weather Underground
August 23, 2014
August 23, 2014
August 22, 2014

Nearby

Snow Depth

Station Depth Elevation
No new snow has been reported.

Earthquake Activity

City Distance Mag. Time & Date
No recent earthquake activity has been reported nearby.
Minimum magnitude displayed is 2.5.

Coastal Water Temperatures

Place Temperature
No Stations Reporting

Nearby Weather Stations